Time;durP1;ratioP1;P1;durP2;ratioP2;P2;SDS_P1;SDS_P2;PMS_P1;PMS_P2;Temp;Humidity;BMP_temperature;BMP_pressure;BME280_temperature;BME280_humidity;BME280_pressure;Samples;Min_cycle;Max_cycle;Signal;HPM_P1;HPM_P2
2023/04/19 00:02:15;;;;;;;0.50;0.50;;;;;;;11.33;100.00;96478.00;5024997;28;20088;-61
2023/04/19 00:04:43;;;;;;;0.50;0.50;;;;;;;11.30;100.00;96473.22;5025347;28;20092;-61
2023/04/19 00:07:10;;;;;;;0.50;0.50;;;;;;;11.33;100.00;96478.00;5025309;28;20057;-63
2023/04/19 00:09:37;;;;;;;0.50;0.50;;;;;;;11.41;100.00;96468.53;5025448;28;20463;-61
2023/04/19 00:12:04;;;;;;;0.50;0.50;;;;;;;11.20;100.00;96440.69;5025411;28;20111;-61
2023/04/19 00:14:30;;;;;;;0.50;0.50;;;;;;;11.39;100.00;96459.78;5023614;28;20049;-62
2023/04/19 00:16:57;;;;;;;0.50;0.50;;;;;;;11.43;100.00;96464.16;5025252;28;20061;-61
2023/04/19 00:19:24;;;;;;;0.43;0.43;;;;;;;10.98;100.00;96398.22;5024042;28;20136;-62
2023/04/19 00:21:51;;;;;;;0.43;0.43;;;;;;;11.42;100.00;96459.81;5025279;28;20077;-61
2023/04/19 00:24:18;;;;;;;0.50;0.50;;;;;;;10.99;100.00;96408.13;5025094;28;20153;-61
2023/04/19 00:26:44;;;;;;;0.50;0.50;;;;;;;11.47;100.00;96461.41;5023434;28;20441;-61
2023/04/19 00:29:11;;;;;;;0.50;0.50;;;;;;;11.39;100.00;96457.81;5024886;28;20152;-61
2023/04/19 00:31:38;;;;;;;0.50;0.50;;;;;;;11.34;100.00;96440.75;5024571;28;20516;-62
2023/04/19 00:34:06;;;;;;;0.40;0.40;;;;;;;10.90;100.00;96398.56;5025411;28;20057;-61
2023/04/19 00:36:32;;;;;;;0.47;0.47;;;;;;;11.17;100.00;96452.56;5025284;28;20500;-61
2023/04/19 00:38:59;;;;;;;0.50;0.50;;;;;;;11.09;100.00;96450.94;5024562;28;20116;-61
2023/04/19 00:41:25;;;;;;;0.50;0.50;;;;;;;11.22;100.00;96443.88;5023525;28;20053;-62
2023/04/19 00:43:52;;;;;;;0.50;0.50;;;;;;;11.19;100.00;96444.66;5024859;28;20061;-61
2023/04/19 00:46:19;;;;;;;0.50;0.50;;;;;;;11.14;100.00;96447.78;5025197;28;20057;-61
2023/04/19 00:48:47;;;;;;;0.50;0.50;;;;;;;11.22;100.00;96449.41;5022635;28;20119;-63
2023/04/19 00:51:14;;;;;;;0.50;0.50;;;;;;;11.19;100.00;96450.97;5024687;28;20057;-62
2023/04/19 00:53:42;;;;;;;0.40;0.40;;;;;;;11.11;100.00;96440.25;5015571;28;20049;-62
2023/04/19 00:56:10;;;;;;;0.50;0.50;;;;;;;10.85;100.00;96401.69;5024843;28;20635;-63
2023/04/19 00:58:37;;;;;;;0.50;0.50;;;;;;;10.92;100.00;96418.38;5023000;28;20084;-62
2023/04/19 01:01:05;;;;;;;0.50;0.50;;;;;;;11.01;100.00;96438.22;5024508;28;20057;-64
2023/04/19 01:03:33;;;;;;;0.50;0.50;;;;;;;10.57;100.00;96380.97;5023238;28;20053;-62
2023/04/19 01:06:01;;;;;;;0.50;0.50;;;;;;;10.85;100.00;96423.88;5024550;28;20053;-62
2023/04/19 01:08:27;;;;;;;0.50;0.50;;;;;;;10.90;100.00;96426.28;5024246;28;20451;-62
2023/04/19 01:10:54;;;;;;;0.50;0.50;;;;;;;10.86;100.00;96436.56;5024619;28;20084;-62
2023/04/19 01:13:20;;;;;;;0.40;0.40;;;;;;;10.63;100.00;96390.53;5022670;28;20057;-62
2023/04/19 01:15:47;;;;;;;0.40;0.40;;;;;;;10.53;100.00;96382.94;5022752;28;20107;-62
2023/04/19 01:18:14;;;;;;;0.50;0.50;;;;;;;10.85;100.00;96424.66;5008244;28;20050;-62
2023/04/19 01:20:41;;;;;;;0.50;0.50;;;;;;;10.49;100.00;96368.28;5019800;28;20088;-63
2023/04/19 01:23:10;;;;;;;0.47;0.47;;;;;;;10.87;100.00;96418.75;5004198;28;20338;-62
2023/04/19 01:25:37;;;;;;;0.50;0.50;;;;;;;10.52;100.00;96378.59;5004546;28;20670;-61
2023/04/19 01:28:05;;;;;;;0.50;0.50;;;;;;;10.85;100.00;96418.31;5004103;28;20054;-63
2023/04/19 01:30:31;;;;;;;0.43;0.43;;;;;;;10.54;100.00;96414.97;5004621;28;20495;-63
2023/04/19 01:32:58;;;;;;;0.50;0.50;;;;;;;10.24;100.00;96360.97;5005154;28;20057;-63
2023/04/19 01:35:25;;;;;;;0.50;0.50;;;;;;;10.77;100.00;96411.16;5004232;28;20058;-62
2023/04/19 01:37:54;;;;;;;0.47;0.47;;;;;;;10.79;100.00;96411.56;5004534;28;20060;-63
2023/04/19 01:40:24;;;;;;;0.50;0.50;;;;;;;10.79;100.00;96408.78;5019017;28;20050;-64
2023/04/19 01:42:52;;;;;;;0.47;0.47;;;;;;;10.21;100.00;96318.25;5004257;28;20057;-62
2023/04/19 01:45:19;;;;;;;0.50;0.50;;;;;;;10.68;100.00;96384.59;5018740;28;20085;-62
2023/04/19 01:47:45;;;;;;;0.50;0.50;;;;;;;10.81;100.00;96392.59;5019150;28;20096;-62
2023/04/19 01:50:12;;;;;;;0.40;0.40;;;;;;;10.58;100.00;96363.19;5023266;28;20136;-63
2023/04/19 01:52:39;;;;;;;0.50;0.50;;;;;;;10.75;100.00;96380.28;5023704;28;20120;-62
2023/04/19 01:55:06;;;;;;;0.50;0.50;;;;;;;10.63;100.00;96368.38;5022002;28;20045;-63
2023/04/19 01:57:32;;;;;;;0.50;0.50;;;;;;;10.81;100.00;96400.91;5022124;28;20072;-62
2023/04/19 02:00:00;;;;;;;0.40;0.40;;;;;;;10.12;100.00;96298.44;5021945;28;20148;-62
2023/04/19 02:02:27;;;;;;;0.40;0.40;;;;;;;10.53;100.00;96355.25;5023490;28;20053;-62
2023/04/19 02:04:54;;;;;;;0.40;0.40;;;;;;;10.88;100.00;96398.16;5022246;28;20045;-62
2023/04/19 02:07:20;;;;;;;0.50;0.50;;;;;;;10.92;100.00;96397.00;5022096;28;20081;-63
2023/04/19 02:09:47;;;;;;;0.50;0.50;;;;;;;10.79;100.00;96403.25;5023725;28;20095;-62
2023/04/19 02:12:13;;;;;;;0.50;0.50;;;;;;;10.70;100.00;96398.84;5023745;28;20107;-62
2023/04/19 02:14:40;;;;;;;0.40;0.40;;;;;;;10.61;100.00;96392.88;5023527;28;20563;-62
2023/04/19 02:17:06;;;;;;;0.55;0.55;;;;;;;10.32;100.00;96402.16;5022322;28;20111;-63
2023/04/19 02:19:33;;;;;;;0.40;0.40;;;;;;;10.21;100.00;96345.94;5023691;28;20095;-62
2023/04/19 02:22:00;;;;;;;0.43;0.43;;;;;;;10.61;100.00;96392.88;5023740;28;20049;-62
2023/04/19 02:24:26;;;;;;;0.50;0.50;;;;;;;10.66;100.00;96389.75;5023198;28;20586;-62
2023/04/19 02:26:53;;;;;;;0.40;0.40;;;;;;;10.19;100.00;96323.41;5023611;28;20119;-62
2023/04/19 02:29:19;;;;;;;0.50;0.50;;;;;;;9.89;100.00;96400.19;5022898;28;20580;-62
2023/04/19 02:31:46;;;;;;;0.50;0.50;;;;;;;9.59;100.00;96390.41;5023184;28;20053;-62
2023/04/19 02:34:13;;;;;;;0.40;0.40;;;;;;;9.88;100.00;96387.53;5021244;28;20061;-64
2023/04/19 02:36:40;;;;;;;0.40;0.40;;;;;;;10.14;100.00;96395.69;5022319;28;20057;-64
2023/04/19 02:39:07;;;;;;;0.50;0.50;;;;;;;10.28;100.00;96384.75;5022427;28;20495;-61
2023/04/19 02:41:34;;;;;;;0.40;0.40;;;;;;;10.28;100.00;96390.28;5023637;28;20057;-62
2023/04/19 02:44:00;;;;;;;0.40;0.40;;;;;;;10.33;100.00;96392.69;5025429;28;20412;-63
2023/04/19 02:46:27;;;;;;;0.50;0.50;;;;;;;9.70;100.00;96275.97;5025354;28;20103;-62
2023/04/19 02:48:54;;;;;;;0.50;0.50;;;;;;;10.49;100.00;96376.59;5022340;28;20077;-63
2023/04/19 02:51:20;;;;;;;0.50;0.50;;;;;;;10.29;100.00;96336.50;5022186;28;20053;-62
2023/04/19 02:53:47;;;;;;;0.50;0.50;;;;;;;10.47;100.00;96378.94;5006971;28;20058;-63
2023/04/19 02:56:15;;;;;;;0.50;0.50;;;;;;;10.54;100.00;96378.19;5007498;28;20050;-61
2023/04/19 02:58:41;;;;;;;0.50;0.50;;;;;;;10.54;100.00;96387.28;5006964;28;20056;-63
2023/04/19 03:01:08;;;;;;;0.50;0.50;;;;;;;10.50;100.00;96358.78;5007053;28;20500;-63
2023/04/19 03:03:35;;;;;;;0.50;0.50;;;;;;;10.64;100.00;96375.47;5006842;28;20057;-63
2023/04/19 03:06:02;;;;;;;0.40;0.40;;;;;;;10.32;100.00;96330.19;5006517;28;20058;-62
2023/04/19 03:08:29;;;;;;;0.40;0.40;;;;;;;9.75;100.00;96361.34;5006804;28;20534;-62
2023/04/19 03:10:55;;;;;;;0.40;0.40;;;;;;;10.14;100.00;96373.56;5007122;28;20085;-62
2023/04/19 03:13:22;;;;;;;0.40;0.40;;;;;;;10.24;100.00;96370.06;5006628;28;20054;-62
2023/04/19 03:15:49;;;;;;;0.40;0.40;;;;;;;9.85;100.00;96385.53;5006636;28;20046;-63
2023/04/19 03:18:16;;;;;;;0.50;0.50;;;;;;;9.92;100.00;96371.78;5006671;28;20108;-63
2023/04/19 03:20:43;;;;;;;0.40;0.40;;;;;;;10.09;100.00;96365.59;5021221;28;20084;-63
2023/04/19 03:23:10;;;;;;;0.40;0.40;;;;;;;9.93;100.00;96339.34;5006753;28;20134;-62
2023/04/19 03:25:36;;;;;;;0.50;0.50;;;;;;;10.06;100.00;96377.41;5005569;28;20108;-64
2023/04/19 03:28:03;;;;;;;0.50;0.50;;;;;;;9.44;100.00;96350.75;5021599;28;20133;-62
2023/04/19 03:30:29;;;;;;;0.40;0.40;;;;;;;9.66;100.00;96377.44;5005921;28;20504;-62
2023/04/19 03:32:57;;;;;;;0.47;0.47;;;;;;;8.88;100.00;96289.41;5006500;28;20120;-62
2023/04/19 03:35:25;;;;;;;0.40;0.40;;;;;;;9.05;100.00;96317.22;5005566;28;20081;-63
2023/04/19 03:37:51;;;;;;;0.40;0.40;;;;;;;9.73;100.00;96374.75;5021540;28;20060;-62
2023/04/19 03:40:18;;;;;;;0.40;0.40;;;;;;;9.89;100.00;96378.06;5005766;28;20129;-62
2023/04/19 03:42:45;;;;;;;0.50;0.50;;;;;;;10.08;100.00;96377.06;5005832;28;20050;-61
2023/04/19 03:45:11;;;;;;;0.40;0.40;;;;;;;9.66;100.00;96302.00;5006118;28;20058;-62
2023/04/19 03:47:38;;;;;;;0.50;0.50;;;;;;;10.16;100.00;96371.19;5006107;28;20582;-61
2023/04/19 03:50:05;;;;;;;0.40;0.40;;;;;;;10.27;100.00;96366.56;5020035;28;20041;-62
2023/04/19 03:52:32;;;;;;;0.50;0.50;;;;;;;10.09;100.00;96329.63;5025882;28;20061;-62
2023/04/19 03:54:59;;;;;;;0.43;0.43;;;;;;;10.38;100.00;96372.16;5025330;28;20061;-62
2023/04/19 03:57:26;;;;;;;0.50;0.50;;;;;;;10.52;100.00;96378.59;5025362;28;20053;-62
2023/04/19 03:59:52;;;;;;;0.43;0.43;;;;;;;10.30;100.00;96332.56;5025459;28;20053;-63
2023/04/19 04:02:19;;;;;;;0.43;0.43;;;;;;;10.61;100.00;96369.91;5006497;28;20523;-62
2023/04/19 04:04:46;;;;;;;0.40;0.40;;;;;;;10.35;100.00;96346.00;5020876;28;20128;-63
2023/04/19 04:07:12;;;;;;;0.47;0.47;;;;;;;10.61;100.00;96358.84;5020259;28;20061;-61
2023/04/19 04:09:39;;;;;;;0.45;0.45;;;;;;;10.73;100.00;96388.19;5005459;28;20131;-61
2023/04/19 04:12:06;;;;;;;0.50;0.50;;;;;;;10.80;100.00;96371.59;5004996;28;20104;-62
2023/04/19 04:14:33;;;;;;;0.50;0.50;;;;;;;10.18;100.00;96374.38;5004975;28;20104;-61
2023/04/19 04:16:59;;;;;;;0.47;0.47;;;;;;;10.57;100.00;96378.19;5005308;28;20104;-61
2023/04/19 04:19:26;;;;;;;0.50;0.50;;;;;;;10.75;100.00;96380.28;5004709;28;20115;-63
2023/04/19 04:21:52;;;;;;;0.50;0.50;;;;;;;10.90;100.00;96373.63;5005165;28;20136;-61
2023/04/19 04:24:21;;;;;;;0.50;0.50;;;;;;;10.42;100.00;96273.28;5005206;28;20046;-63
2023/04/19 04:26:48;;;;;;;0.50;0.50;;;;;;;11.09;100.00;96373.31;5005420;28;20053;-62
2023/04/19 04:29:15;;;;;;;0.50;0.50;;;;;;;11.02;100.00;96376.09;5020064;28;20104;-61
2023/04/19 04:31:42;;;;;;;0.45;0.45;;;;;;;10.84;100.00;96336.41;5005395;28;20100;-61
2023/04/19 04:34:09;;;;;;;0.50;0.50;;;;;;;11.30;100.00;96378.97;5005100;28;20050;-60
2023/04/19 04:36:36;;;;;;;0.50;0.50;;;;;;;11.38;100.00;96380.56;5004573;28;20065;-62
2023/04/19 04:39:05;;;;;;;0.40;0.40;;;;;;;11.44;100.00;96392.88;5019689;28;20479;-62
2023/04/19 04:41:31;;;;;;;0.50;0.50;;;;;;;11.20;100.00;96335.34;5003591;28;20505;-63
2023/04/19 04:43:59;;;;;;;0.50;0.50;;;;;;;11.56;100.00;96392.50;5005090;28;20133;-65
2023/04/19 04:46:38;;;;;;;0.50;0.50;;;;;;;11.57;100.00;96394.09;5004683;28;20054;-62
2023/04/19 04:49:05;;;;;;;0.50;0.50;;;;;;;11.31;100.00;96358.34;5022056;28;20115;-63
2023/04/19 04:51:32;;;;;;;0.50;0.50;;;;;;;10.25;100.00;96208.38;5016115;28;20099;-61
2023/04/19 04:53:59;;;;;;;0.50;0.50;;;;;;;11.21;100.00;96348.00;5011733;28;20219;-62
2023/04/19 04:56:26;;;;;;;0.50;0.50;;;;;;;11.17;100.00;96341.69;5004357;28;20061;-62
2023/04/19 04:58:53;;;;;;;0.50;0.50;;;;;;;11.56;100.00;96398.03;5003402;28;20057;-63
2023/04/19 05:01:21;;;;;;;0.50;0.50;;;;;;;11.68;100.00;96389.41;5003390;28;20137;-62
2023/04/19 05:03:49;;;;;;;0.50;0.50;;;;;;;11.72;100.00;96381.88;5004742;28;20070;-62
2023/04/19 05:06:15;;;;;;;0.50;0.50;;;;;;;11.52;100.00;96339.00;4988683;28;20061;-62
2023/04/19 05:08:43;;;;;;;0.50;0.50;;;;;;;11.90;100.00;96396.56;5004174;28;20085;-61
2023/04/19 05:11:10;;;;;;;0.50;0.50;;;;;;;11.65;100.00;96340.25;5004665;28;20053;-62
2023/04/19 05:13:36;;;;;;;0.50;0.50;;;;;;;12.01;100.00;96391.81;5004515;28;20661;-62
2023/04/19 05:16:03;;;;;;;0.57;0.57;;;;;;;12.08;100.00;96391.81;5004346;28;20050;-61
2023/04/19 05:18:30;;;;;;;0.50;0.50;;;;;;;12.22;100.00;96383.47;5004253;28;20524;-62
2023/04/19 05:20:57;;;;;;;0.50;0.50;;;;;;;11.81;100.00;96287.94;5004898;28;20145;-61
2023/04/19 05:23:23;;;;;;;0.50;0.50;;;;;;;12.32;100.00;96390.22;5003893;28;20111;-62
2023/04/19 05:25:50;;;;;;;0.50;0.50;;;;;;;12.37;100.00;96390.63;5002968;28;20053;-60
2023/04/19 05:28:16;;;;;;;0.60;0.60;;;;;;;12.43;98.54;96389.03;5002527;28;20046;-62
2023/04/19 05:30:43;;;;;;;0.65;0.65;;;;;;;12.45;99.26;96389.44;5003869;28;20483;-62
2023/04/19 05:33:10;;;;;;;0.50;0.50;;;;;;;12.64;98.20;96391.81;5004180;28;20135;-63
2023/04/19 05:35:36;;;;;;;0.50;0.50;;;;;;;12.78;97.83;96386.22;5001694;28;20512;-61
2023/04/19 05:38:03;;;;;;;0.60;0.60;;;;;;;13.05;98.06;96384.59;5003629;28;20163;-60
2023/04/19 05:40:30;;;;;;;0.60;0.60;;;;;;;13.16;96.98;96382.56;5003756;28;20479;-60
2023/04/19 05:42:56;;;;;;;0.55;0.55;;;;;;;13.22;96.08;96377.34;5018740;28;20054;-62
2023/04/19 05:45:25;;;;;;;0.60;0.60;;;;;;;13.41;95.66;96374.91;5003987;28;20084;-60
2023/04/19 05:47:51;;;;;;;0.60;0.60;;;;;;;13.60;93.34;96366.06;5003795;28;20720;-61
2023/04/19 05:50:19;;;;;;;0.60;0.60;;;;;;;13.34;91.79;96302.59;5017258;28;20491;-62
2023/04/19 05:52:46;;;;;;;0.60;0.60;;;;;;;13.88;90.32;96384.56;5022411;28;20060;-62
2023/04/19 05:55:12;;;;;;;0.60;0.60;;;;;;;14.07;89.01;96374.91;5023671;28;20051;-61
2023/04/19 05:57:39;;;;;;;0.60;0.60;;;;;;;14.26;88.65;96374.34;5023870;28;20084;-62
2023/04/19 06:00:08;;;;;;;0.52;0.52;;;;;;;14.48;85.69;96382.13;5023677;28;20052;-63
2023/04/19 06:02:35;;;;;;;0.60;0.60;;;;;;;14.49;82.97;96377.38;5022165;28;20582;-63
2023/04/19 06:05:03;;;;;;;0.60;0.60;;;;;;;14.02;84.22;96302.94;5022945;28;20053;-61
2023/04/19 06:07:36;;;;;;;;;;;;;;;14.56;82.42;96377.28;5021644;28;20487;-61
2023/04/19 06:10:16;;;;;;;0.60;0.60;;;;;;;14.23;82.66;96358.44;5014422;28;19928;-62
2023/04/19 06:12:42;;;;;;;0.55;0.55;;;;;;;13.57;82.54;96272.25;5002599;28;20606;-62
2023/04/19 06:15:10;;;;;;;0.60;0.60;;;;;;;14.29;83.20;96381.91;5008177;28;20052;-66
2023/04/19 06:17:37;;;;;;;0.60;0.60;;;;;;;13.77;85.23;96385.84;5023646;28;20056;-62
2023/04/19 06:20:06;;;;;;;0.60;0.60;;;;;;;14.12;85.57;96380.81;5021615;28;20080;-67
2023/04/19 06:22:35;;;;;;;0.60;0.60;;;;;;;13.51;86.49;96379.59;5022399;28;20316;-63
2023/04/19 06:25:02;;;;;;;0.60;0.60;;;;;;;13.16;89.44;96359.50;5008303;28;20109;-60
2023/04/19 06:27:29;;;;;;;0.60;0.60;;;;;;;13.42;88.17;96337.53;5016271;28;20057;-65
2023/04/19 06:29:55;;;;;;;0.68;0.68;;;;;;;13.83;89.41;96387.75;5018346;28;20081;-72
2023/04/19 06:32:22;;;;;;;0.60;0.60;;;;;;;12.71;89.72;96277.84;5012971;28;20501;-64
2023/04/19 06:34:49;;;;;;;0.60;0.60;;;;;;;13.00;94.77;96392.50;5007050;28;20042;-60
2023/04/19 06:37:15;;;;;;;0.50;0.50;;;;;;;13.58;94.15;96396.28;5008461;28;20141;-62
2023/04/19 06:39:42;;;;;;;0.52;0.52;;;;;;;13.54;90.50;96394.72;5019776;28;20058;-64
2023/04/19 06:42:09;;;;;;;0.60;0.60;;;;;;;13.60;90.69;96396.66;5021694;28;20054;-61
2023/04/19 06:44:36;;;;;;;0.60;0.60;;;;;;;14.27;89.84;96398.25;5023376;28;20049;-65
2023/04/19 06:47:02;;;;;;;0.70;0.70;;;;;;;14.56;86.91;96394.81;5010006;28;20081;-60
2023/04/19 06:49:30;;;;;;;0.60;0.60;;;;;;;14.95;84.61;96394.44;5017677;28;20053;-62
2023/04/19 06:51:58;;;;;;;0.60;0.60;;;;;;;15.33;84.39;96398.78;5009878;28;20054;-62
2023/04/19 06:54:25;;;;;;;0.70;0.70;;;;;;;14.93;80.73;96308.41;5017040;28;20042;-65
2023/04/19 06:56:51;;;;;;;0.60;0.60;;;;;;;15.63;80.94;96407.22;5015799;28;20079;-64
2023/04/19 06:59:20;;;;;;;0.60;0.60;;;;;;;15.52;81.91;96401.00;5014225;28;20046;-65
2023/04/19 07:01:47;;;;;;;0.70;0.70;;;;;;;15.48;79.80;96377.09;5009298;28;20148;-62
2023/04/19 07:04:14;;;;;;;0.60;0.60;;;;;;;15.69;81.62;96411.13;5025719;28;20164;-63
2023/04/19 07:06:42;;;;;;;0.70;0.70;;;;;;;15.76;79.18;96416.59;5018331;28;20127;-71
2023/04/19 07:09:08;;;;;;;0.60;0.60;;;;;;;15.74;79.44;96419.03;5006555;28;21102;-65
2023/04/19 07:11:35;;;;;;;0.63;0.63;;;;;;;15.73;79.09;96383.94;5005450;28;20049;-68
2023/04/19 07:14:01;;;;;;;0.70;0.70;;;;;;;15.04;76.32;96336.16;5007214;28;20045;-62
2023/04/19 07:16:28;;;;;;;0.70;0.70;;;;;;;15.80;77.41;96410.97;5010173;28;20046;-63
2023/04/19 07:18:56;;;;;;;0.60;0.60;;;;;;;15.29;76.03;96364.53;5005591;28;20059;-63
2023/04/19 07:21:25;;;;;;;0.60;0.60;;;;;;;16.04;76.63;96416.22;5021294;28;20065;-62
2023/04/19 07:23:52;;;;;;;0.70;0.70;;;;;;;16.09;75.16;96418.53;5019523;28;20115;-64
2023/04/19 07:26:19;;;;;;;0.70;0.70;;;;;;;16.27;74.23;96424.66;5023245;28;20132;-67
2023/04/19 07:28:45;;;;;;;0.70;0.70;;;;;;;16.22;74.13;96372.03;5012893;28;20049;-67
2023/04/19 07:31:16;;;;;;;0.70;0.70;;;;;;;16.45;74.16;96391.66;5023326;28;20049;-62
2023/04/19 07:33:43;;;;;;;0.60;0.60;;;;;;;16.45;73.24;96369.28;5025721;28;20061;-63
2023/04/19 07:36:10;;;;;;;0.60;0.60;;;;;;;15.60;70.99;96218.19;5021836;28;20119;-63
2023/04/19 07:38:37;;;;;;;0.70;0.70;;;;;;;16.78;69.45;96420.69;5005913;28;20061;-64
2023/04/19 07:41:04;;;;;;;0.70;0.70;;;;;;;16.21;70.35;96353.69;5005909;28;20053;-62
2023/04/19 07:43:30;;;;;;;0.70;0.70;;;;;;;16.70;72.92;96424.00;5006234;28;20046;-63
2023/04/19 07:45:57;;;;;;;0.70;0.70;;;;;;;16.93;72.51;96438.00;5019543;28;20119;-65
2023/04/19 07:48:24;;;;;;;0.60;0.60;;;;;;;17.00;70.95;96430.28;5005253;28;20081;-65
2023/04/19 07:50:50;;;;;;;0.70;0.70;;;;;;;16.21;71.78;96328.53;5023628;28;20080;-64
2023/04/19 07:53:17;;;;;;;0.70;0.70;;;;;;;16.80;70.20;96417.44;5025733;28;20057;-67
2023/04/19 07:55:44;;;;;;;0.63;0.63;;;;;;;16.78;67.82;96372.31;5015573;28;20058;-67
2023/04/19 07:58:11;;;;;;;0.80;0.80;;;;;;;16.31;71.68;96430.97;5024777;28;20057;-64
2023/04/19 08:00:37;;;;;;;0.70;0.70;;;;;;;16.76;68.25;96434.28;5024902;28;20119;-63
2023/04/19 08:03:04;;;;;;;0.70;0.70;;;;;;;16.61;68.83;96355.41;5005530;28;20042;-69
2023/04/19 08:05:31;;;;;;;0.70;0.70;;;;;;;17.29;69.09;96433.34;5007547;28;20053;-65
2023/04/19 08:07:58;;;;;;;0.70;0.70;;;;;;;17.57;67.43;96432.81;5020266;28;20053;-61
2023/04/19 08:10:27;;;;;;;0.73;0.73;;;;;;;17.87;65.94;96426.97;5020270;28;20049;-64
2023/04/19 08:12:54;;;;;;;0.70;0.70;;;;;;;17.68;64.73;96338.94;5024915;28;20061;-64
2023/04/19 08:15:33;;;;;;;0.63;0.63;;;;;;;17.69;63.03;96362.13;5022799;28;20053;-68
2023/04/19 08:18:06;;;;;;;0.70;0.70;;;;;;;16.70;62.90;96432.41;5004679;28;20058;-63
2023/04/19 08:20:33;;;;;;;0.70;0.70;;;;;;;14.76;62.00;96107.88;5023238;28;20058;-69
2023/04/19 08:23:00;;;;;;;0.70;0.70;;;;;;;16.85;62.33;96397.38;5022492;28;20111;-67
2023/04/19 08:25:40;;;;;;;0.80;0.80;;;;;;;16.35;62.84;96392.59;5021637;28;20065;-69
2023/04/19 08:28:06;;;;;;;0.60;0.60;;;;;;;15.87;65.63;96394.91;5022597;28;20148;-69
2023/04/19 08:30:33;;;;;;;0.70;0.70;;;;;;;15.39;66.09;96430.66;5024855;28;20060;-63
2023/04/19 08:33:00;;;;;;;0.60;0.60;;;;;;;15.09;67.66;96427.75;5024690;28;20510;-61
2023/04/19 08:35:26;;;;;;;0.60;0.60;;;;;;;15.51;68.53;96434.88;5024160;28;20045;-62
2023/04/19 08:37:53;;;;;;;0.63;0.63;;;;;;;15.08;66.89;96409.41;5011750;28;20116;-66
2023/04/19 08:40:20;;;;;;;0.60;0.60;;;;;;;15.03;67.50;96440.56;5004014;28;20054;-64
2023/04/19 08:42:46;;;;;;;0.60;0.60;;;;;;;14.84;68.48;96439.16;5015175;28;20059;-64
2023/04/19 08:45:15;;;;;;;0.60;0.60;;;;;;;14.50;69.12;96440.25;5024374;28;20507;-66
2023/04/19 08:47:56;;;;;;;0.60;0.60;;;;;;;14.49;70.42;96438.66;5009094;28;20115;-69
2023/04/19 08:50:28;;;;;;;;;;;;;;;14.59;69.22;96446.16;5003976;28;20050;-70
2023/04/19 08:53:00;;;;;;;0.60;0.60;;;;;;;14.18;70.48;96489.81;5011886;28;20417;-72
2023/04/19 08:55:47;;;;;;;0.60;0.60;;;;;;;13.17;72.80;96403.59;5023681;28;20045;-65
2023/04/19 08:58:34;;;;;;;0.68;0.68;;;;;;;13.35;72.74;96412.69;5020944;28;20473;-69
2023/04/19 09:01:05;;;;;;;0.57;0.57;;;;;;;13.70;73.84;96453.47;5009274;28;20705;-65
2023/04/19 09:03:32;;;;;;;0.60;0.60;;;;;;;13.76;71.37;96403.72;5021107;28;20057;-70
2023/04/19 09:06:10;;;;;;;0.60;0.60;;;;;;;13.94;74.55;96448.97;5015565;28;20083;-70
2023/04/19 09:08:39;;;;;;;0.60;0.60;;;;;;;13.99;73.19;96442.97;5021982;28;20079;-67
2023/04/19 09:11:06;;;;;;;0.60;0.60;;;;;;;14.15;73.19;96446.03;5017530;28;20081;-70
2023/04/19 09:13:37;;;;;;;0.60;0.60;;;;;;;14.06;72.85;96415.06;5009253;28;20056;-63
2023/04/19 09:16:04;;;;;;;0.60;0.60;;;;;;;13.58;73.70;96296.09;5018252;28;20423;-69
2023/04/19 09:18:31;;;;;;;0.60;0.60;;;;;;;14.59;71.38;96359.75;5019505;28;20057;-68
2023/04/19 09:21:03;;;;;;;0.52;0.52;;;;;;;14.15;69.95;96390.34;5002673;28;20136;-70
2023/04/19 09:23:30;;;;;;;0.60;0.60;;;;;;;14.13;73.75;96454.81;5003822;28;20133;-64
2023/04/19 09:25:59;;;;;;;0.70;0.70;;;;;;;14.68;73.26;96452.84;5002567;28;20073;-69
2023/04/19 09:29:03;;;;;;;0.60;0.60;;;;;;;14.33;72.01;96386.25;5003657;28;20529;-66
2023/04/19 09:31:33;;;;;;;;;;;;;;;15.12;71.26;96440.88;5004712;28;20057;-64
2023/04/19 09:34:18;;;;;;;0.70;0.70;;;;;;;14.34;70.14;96292.31;5002709;28;19925;-68
2023/04/19 09:36:45;;;;;;;0.70;0.70;;;;;;;15.80;69.46;96434.13;5011341;28;20665;-61
2023/04/19 09:39:13;;;;;;;0.70;0.70;;;;;;;16.03;66.63;96436.19;5010818;28;20100;-63
2023/04/19 09:41:52;;;;;;;0.70;0.70;;;;;;;15.62;67.46;96471.81;5009505;28;20061;-65
2023/04/19 09:44:20;;;;;;;0.75;0.75;;;;;;;16.13;68.98;96430.47;5017429;28;20045;-67
2023/04/19 09:47:24;;;;;;;0.70;0.70;;;;;;;15.90;64.74;96338.19;5012821;28;20061;-65
2023/04/19 09:50:10;;;;;;;0.60;0.60;;;;;;;15.70;65.32;96414.69;5015649;28;20057;-65
2023/04/19 09:52:51;;;;;;;0.60;0.60;;;;;;;16.89;64.25;96429.66;5008996;28;20066;-66
2023/04/19 09:55:18;;;;;;;0.70;0.70;;;;;;;16.12;65.61;96294.75;5021190;28;20466;-63
2023/04/19 09:57:48;;;;;;;0.70;0.70;;;;;;;16.48;62.20;96435.56;5022957;28;20488;-60
2023/04/19 10:00:15;;;;;;;0.60;0.60;;;;;;;16.82;61.13;96387.81;5021899;28;20119;-70
2023/04/19 10:02:43;;;;;;;0.60;0.60;;;;;;;16.82;63.47;96431.81;5005715;28;20657;-59
2023/04/19 10:05:11;;;;;;;0.60;0.60;;;;;;;16.81;63.31;96419.00;5006096;28;20109;-69
2023/04/19 10:07:48;;;;;;;0.70;0.70;;;;;;;17.17;65.31;96425.56;5007752;28;20049;-59
2023/04/19 10:10:16;;;;;;;0.70;0.70;;;;;;;17.41;63.96;96429.91;5007673;28;20144;-69
2023/04/19 10:12:52;;;;;;;0.70;0.70;;;;;;;17.24;61.88;96403.03;5007507;28;20061;-68
2023/04/19 10:15:22;;;;;;;0.80;0.80;;;;;;;17.61;60.47;96423.13;5007235;28;20535;-59
2023/04/19 10:17:49;;;;;;;0.70;0.70;;;;;;;17.54;61.11;96416.88;5007281;28;20049;-69
2023/04/19 10:20:23;;;;;;;0.70;0.70;;;;;;;17.62;60.88;96390.31;5007508;28;20064;-60
2023/04/19 10:22:50;;;;;;;0.60;0.60;;;;;;;18.39;59.93;96413.81;5005586;28;20128;-68
2023/04/19 10:25:17;;;;;;;0.80;0.80;;;;;;;18.76;55.95;96385.22;5007894;28;20057;-61
2023/04/19 10:27:45;;;;;;;0.80;0.80;;;;;;;18.67;54.91;96373.84;5007800;28;20492;-60
2023/04/19 10:30:19;;;;;;;0.80;0.80;;;;;;;18.30;57.09;96368.75;5007280;28;20088;-63
2023/04/19 10:32:52;;;;;;;0.75;0.75;;;;;;;18.37;57.65;96405.00;5004324;28;20046;-60
2023/04/19 10:35:23;;;;;;;0.70;0.70;;;;;;;18.14;56.83;96388.34;5010929;28;20571;-70
2023/04/19 10:38:11;;;;;;;0.70;0.70;;;;;;;18.16;58.74;96341.06;5012848;28;20062;-70
2023/04/19 10:40:59;;;;;;;0.70;0.70;;;;;;;17.87;56.17;96396.16;5015046;28;20333;-64
2023/04/19 10:43:28;;;;;;;0.70;0.70;;;;;;;18.20;57.17;96383.00;5004901;28;20050;-65
2023/04/19 10:46:01;;;;;;;0.65;0.65;;;;;;;17.56;56.46;96218.41;5022371;28;20419;-64
2023/04/19 10:48:32;;;;;;;0.70;0.70;;;;;;;18.69;54.27;96391.03;5016488;28;20512;-61
2023/04/19 10:51:04;;;;;;;0.73;0.73;;;;;;;18.66;54.15;96391.91;5017810;28;20064;-61
2023/04/19 10:53:47;;;;;;;0.70;0.70;;;;;;;19.03;54.63;96382.91;5009821;28;20081;-68
2023/04/19 10:56:20;;;;;;;0.80;0.80;;;;;;;18.95;53.29;96380.75;5007353;28;20107;-61
2023/04/19 10:58:59;;;;;;;0.73;0.73;;;;;;;18.91;52.50;96383.66;5014125;28;20108;-60
2023/04/19 11:01:41;;;;;;;0.80;0.80;;;;;;;18.30;53.97;96317.47;5007485;28;20147;-61
2023/04/19 11:04:12;;;;;;;0.70;0.70;;;;;;;18.06;52.85;96269.22;5023082;28;20061;-65
2023/04/19 11:06:51;;;;;;;0.80;0.80;;;;;;;19.06;51.89;96386.88;5015402;28;20061;-69
2023/04/19 11:09:27;;;;;;;0.80;0.80;;;;;;;18.36;50.95;96372.59;5023827;28;20627;-67
2023/04/19 11:12:01;;;;;;;0.80;0.80;;;;;;;17.97;53.51;96378.34;5008249;28;20041;-65
2023/04/19 11:14:34;;;;;;;0.70;0.70;;;;;;;17.31;52.96;96358.91;5018383;28;20045;-63
2023/04/19 11:17:04;;;;;;;0.73;0.73;;;;;;;17.90;53.06;96328.03;5009791;28;20065;-61
2023/04/19 11:19:30;;;;;;;0.80;0.80;;;;;;;17.68;54.45;96301.72;5010355;28;20124;-61
2023/04/19 11:21:58;;;;;;;0.70;0.70;;;;;;;17.99;53.64;96373.84;5023958;28;20142;-61
2023/04/19 11:24:25;;;;;;;0.70;0.70;;;;;;;17.48;55.42;96374.56;5022129;28;20080;-63
2023/04/19 11:26:52;;;;;;;0.70;0.70;;;;;;;17.71;55.29;96373.69;5024580;28;20369;-71
2023/04/19 11:29:21;;;;;;;0.70;0.70;;;;;;;17.26;54.73;96375.41;5022888;28;20119;-63
2023/04/19 11:31:48;;;;;;;0.65;0.65;;;;;;;17.69;55.97;96378.94;5024081;28;20056;-61
2023/04/19 11:34:15;;;;;;;0.60;0.60;;;;;;;17.58;54.85;96355.97;5023954;28;20049;-63
2023/04/19 11:36:51;;;;;;;0.70;0.70;;;;;;;18.26;53.70;96384.06;5024487;28;20478;-70
2023/04/19 11:39:18;;;;;;;0.70;0.70;;;;;;;17.99;53.65;96375.88;5012750;28;20049;-61